Station info - map view · info · telemetry · weather · raw · status · beacons · messages · bulletins · browse · moving · my account
Callsign, ship name or locator: Clear       
It is possible to search using wildcards (*?) after a prefix. Example: OH*
APRS station OE1NPC-9 - show graphs
Map loading...
Mic-E message: Off duty
Location: 48°10.42' N 16°23.04' E - locator JN88EE61BQ - show map - static map
2.5 miles South bearing 167° from Vienna, Politischer Bezirk Wien (Stadt), Vienna, Austria [?]
7.9 miles West bearing 255° from Groß-Enzersdorf (Gross-Enzersdorf), Politischer Bezirk Gänserndorf, Lower Austria, Austria
9.2 miles Southwest bearing 205° from Gerasdorf bei Wien, Politischer Bezirk Wien Umgebung, Lower Austria, Austria
33.3 miles West bearing 273° from Bratislava, Bratislavský, Slovakia
Last position: 2020-10-29 03:56:34 EDT (12h18m ago)
2020-10-29 08:56:34 CET local time at Vienna, Austria [?]
Altitude: 738 ft
Course:
Speed: 0 MPH
Device: Yaesu: FTM-400DR (rig)
Last path: OE1NPC-9>TXQP42 via OE1XQR,WIDE1*,qAR,OE3BUB-10 (good)
Positions stored: 22068
Packet rate: 62 seconds between packets on average during 1869 seconds.
Other SSIDs: OE1NPC
Stations near current position of OE1NPC-9 - show more
callsign distance last heard - EDT      callsign distance last heard - EDT
OE1XQR0.3 miles 180°2020-10-29 16:11:17 OE1XTW0.6 miles 30°2020-10-29 16:05:27
PS-OE1XTW0.6 miles 29°2020-10-29 16:01:52 OE1XTR-R0.7 miles 29°2020-10-29 06:38:25
OE1XTW-R0.7 miles 29°2020-10-29 15:59:45 OE1XAW-100.7 miles 32°2020-10-29 16:02:38
OE1MMU-100.7 miles 298°2020-10-26 23:42:04 OE1SCS-100.8 miles 337°2020-10-04 18:41:17
OE1VRB-70.8 miles 264°2020-10-25 09:38:55 OE1WUA-DP1.0 miles 268°2020-10-29 14:20:34
OE1WUA-71.0 miles 266°2020-10-29 16:14:08 OE3XMC-131.0 miles 234°2020-10-29 15:55:02
OE1XKR-71.0 miles 237°2020-10-29 16:01:51 OE1LYK-71.0 miles 292°2020-10-10 02:45:50
OE4WUA-71.1 miles 269°2020-10-26 13:05:54 OE1SCS-151.2 miles 6°2020-10-29 15:48:04
OE1SCS-81.2 miles 7°2020-10-18 05:50:50 OE1MCA-101.2 miles 342°2020-10-20 02:12:25
OE1GXK-91.3 miles 198°2020-10-13 00:40:54 OE1XUR-101.4 miles 157°2020-10-29 16:14:05
Stations which heard OE1NPC-9 directly on radio –
callsign pkts first heard - EDT last heard longest (tx => rx) longest at - EDT
OE1XQR 117 2020-10-03 02:25:36 2020-10-29 03:56:33 JN87CV > JN88EE 21.1 miles 23° 2020-10-04 11:41:41
OE6XTR 77 2020-10-03 02:28:52 2020-10-29 03:47:49 JN88FD > JN77VN 50.0 miles 220° 2020-10-07 02:42:50
HG1PNY-1 4 2020-10-03 03:18:43 2020-10-04 11:09:52 JN87AJ > JN87TN 78.6 miles 79° 2020-10-04 09:05:22
OE1IWA-10 172 2020-10-03 02:25:35 2020-10-29 03:52:00 JN88FD > JN88ED 3.8 miles 251° 2020-10-07 02:26:44
OE3XTR-2 26 2020-10-03 02:58:23 2020-10-24 11:44:55 JN87CV > JN87AT 9.2 miles 240° 2020-10-09 06:51:18
OE1IWA-11 190 2020-10-03 02:26:19 2020-10-29 03:53:42 JN87CW > JN88DD 15.0 miles 14° 2020-10-24 11:51:55
OE1TRB-15 12 2020-10-03 02:25:35 2020-10-24 12:18:22 JN88ED > JN88EF 7.6 miles 14° 2020-10-04 12:24:31
OE3TRB-15 1 2020-10-03 02:46:03 2020-10-03 02:46:03 JN87DX > JN87BW 9.4 miles 245° 2020-10-03 02:46:03
OE3BUB-10 25 2020-10-03 02:28:06 2020-10-29 03:43:21 JN88DD > JN88FG 12.8 miles 28° 2020-10-29 03:27:25
OE3PDB-3 64 2020-10-03 02:25:35 2020-10-29 03:52:00 JN88ED > JN88BG 16.0 miles 303° 2020-10-09 06:28:09
OE3XLR 5 2020-10-03 02:31:55 2020-10-23 06:13:48 JN88EE > JN77TX 38.3 miles 250° 2020-10-15 03:13:15
S55YZA-11 1 2020-10-04 09:02:54 2020-10-04 09:02:54 JN87AJ > JN76NE 92.6 miles 207° 2020-10-04 09:02:54
OE6XBF-11 18 2020-10-03 03:33:03 2020-10-24 10:54:57 JN87AL > JN76XU 43.6 miles 188° 2020-10-10 11:57:26
OE3PDB-10 96 2020-10-03 02:29:22 2020-10-29 03:54:42 JN88ED > JN88BG 16.0 miles 303° 2020-10-09 06:28:10
OE3KJN-10 5 2020-10-04 11:41:40 2020-10-29 03:52:00 JN88ED > JN87EX 14.0 miles 174° 2020-10-29 03:52:00
S59DTB-10 4 2020-10-03 05:09:16 2020-10-10 03:57:33 JN87AJ > JN86AO 53.1 miles 178° 2020-10-10 03:57:33
OE3XMC-10 10 2020-10-07 02:29:41 2020-10-07 02:45:38 JN88FC > JN88FD 2.3 miles 61° 2020-10-07 02:45:38
OE3XXI 1 2020-10-03 02:28:51 2020-10-03 02:28:51 JN88ED > JN88HE 10.5 miles 86° 2020-10-03 02:28:51
9A7KXP-3 1 2020-10-04 09:02:52 2020-10-04 09:02:52 JN87AJ > JN85DU 106.4 miles 173° 2020-10-04 09:02:52
OE4ENU-2 1 2020-10-03 03:04:27 2020-10-03 03:04:27 JN87BR > JN87FU 18.1 miles 63° 2020-10-03 03:04:27
OE1IWA-12 167 2020-10-03 02:27:23 2020-10-29 03:52:00 JN87DX > JN88ED 10.3 miles 15° 2020-10-04 11:51:23

Only position packets which were originated by the station are shown here. The range statistics show some extra long hops, because some digipeaters do not correctly add themselves to the digipeater path. Please check the raw packets.
About this site
This page shows real-time information collected from the Automatic Position Reporting System Internet network (APRS-IS). APRS is used by amateur (ham) radio operators to transmit real-time position information, weather data, telemetry and messages over the radio. A vehicle equipped with a GPS receiver, a VHF transmitter or HF transceiver and a small computer device called a tracker transmits it's location, speed and course in a small data packet, which is then received by a nearby iGate receiving site which forwards the packet on the Internet. Systems connected to the Internet can send information on the APRS-IS without a radio transmitter, or collect and display information transmitted anywhere in the world.
User guide · FAQ · Blog · Discussion group · Linking to aprs.fi · AIS sites · Service status · Database statistics · Advertising on aprs.fi · Technical details · API · Change log · Planned changes · Credits and thanks · Terms Of Service · iPhone/iPad APRS